Time,TemperatureF,DewpointF,PressureIn,WindDirection,WindDirectionDegrees,WindSpeedMPH,WindSpeedGustMPH,Humidity,HourlyPrecipIn,Conditions,Clouds,dailyrainin,SoftwareType,DateUTC
2013-06-18 00:04:00,61.3,61.3,29.96,West,264,0.0,0.0,100,0.00,,,0.00,WUHU216DAVISWMX,2013-06-18 04:04:00,
2013-06-18 00:09:00,61.2,61.2,29.95,West,264,0.0,0.0,100,0.00,,,0.00,WUHU216DAVISWMX,2013-06-18 04:09:00,
2013-06-18 00:14:00,61.2,61.2,29.95,West,264,0.0,0.0,100,0.00,,,0.00,WUHU216DAVISWMX,2013-06-18 04:14:00,
2013-06-18 00:19:00,61.1,61.1,29.96,West,265,0.0,0.0,100,0.00,,,0.00,WUHU216DAVISWMX,2013-06-18 04:19:00,
2013-06-18 00:24:00,61.0,61.0,29.96,West,265,0.0,0.0,100,0.00,,,0.00,WUHU216DAVISWMX,2013-06-18 04:24:00,
2013-06-18 00:29:00,61.1,61.1,29.96,West,264,0.0,0.0,100,0.00,,,0.00,WUHU216DAVISWMX,2013-06-18 04:29:00,
2013-06-18 00:34:00,60.9,60.6,29.96,West,264,0.0,0.0,99,0.00,,,0.00,WUHU216DAVISWMX,2013-06-18 04:34:00,
2013-06-18 00:39:00,60.8,60.5,29.95,West,264,0.0,0.0,99,0.00,,,0.00,WUHU216DAVISWMX,2013-06-18 04:39:00,
2013-06-18 00:44:00,60.6,60.3,29.95,West,264,0.0,0.0,99,0.00,,,0.00,WUHU216DAVISWMX,2013-06-18 04:44:00,
2013-06-18 00:49:00,60.6,60.3,29.95,West,264,0.0,0.0,99,0.00,,,0.00,WUHU216DAVISWMX,2013-06-18 04:49:00,
2013-06-18 00:54:00,60.5,60.2,29.94,West,265,0.0,0.0,99,0.00,,,0.00,WUHU216DAVISWMX,2013-06-18 04:54:00,
2013-06-18 00:59:00,60.5,60.2,29.95,West,264,0.0,0.0,99,0.00,,,0.00,WUHU216DAVISWMX,2013-06-18 04:59:00,
2013-06-18 01:04:00,60.3,60.0,29.95,West,265,0.0,0.0,99,0.00,,,0.00,WUHU216DAVISWMX,2013-06-18 05:04:00,
2013-06-18 01:09:00,60.4,60.1,29.95,West,265,0.0,0.0,99,0.00,,,0.00,WUHU216DAVISWMX,2013-06-18 05:09:00,
2013-06-18 01:14:00,60.3,60.0,29.95,West,264,0.0,0.0,99,0.00,,,0.00,WUHU216DAVISWMX,2013-06-18 05:14:00,
2013-06-18 01:19:00,60.1,59.8,29.95,West,264,0.0,0.0,99,0.00,,,0.00,WUHU216DAVISWMX,2013-06-18 05:19:00,
2013-06-18 01:24:00,60.0,59.7,29.95,West,264,0.0,0.0,99,0.00,,,0.00,WUHU216DAVISWMX,2013-06-18 05:24:00,
2013-06-18 01:29:00,59.8,59.5,29.95,West,264,0.0,1.0,99,0.00,,,0.00,WUHU216DAVISWMX,2013-06-18 05:29:00,
2013-06-18 01:34:00,59.8,59.5,29.95,West,265,0.0,1.0,99,0.00,,,0.00,WUHU216DAVISWMX,2013-06-18 05:34:00,
2013-06-18 01:39:00,59.7,59.4,29.95,West,264,0.0,0.0,99,0.00,,,0.00,WUHU216DAVISWMX,2013-06-18 05:39:00,
2013-06-18 01:44:00,59.6,59.3,29.95,West,265,0.0,0.0,99,0.00,,,0.00,WUHU216DAVISWMX,2013-06-18 05:44:00,
2013-06-18 01:49:00,59.6,59.3,29.95,West,265,0.0,0.0,99,0.00,,,0.00,WUHU216DAVISWMX,2013-06-18 05:49:00,
2013-06-18 01:54:00,59.6,59.3,29.96,West,265,0.0,0.0,99,0.00,,,0.00,WUHU216DAVISWMX,2013-06-18 05:54:00,
2013-06-18 01:59:00,59.6,59.3,29.96,West,264,0.0,0.0,99,0.00,,,0.00,WUHU216DAVISWMX,2013-06-18 05:59:00,
2013-06-18 02:04:00,59.5,59.2,29.96,West,264,0.0,0.0,99,0.00,,,0.00,WUHU216DAVISWMX,2013-06-18 06:04:00,
2013-06-18 02:09:00,59.5,59.2,29.96,West,265,0.0,0.0,99,0.00,,,0.00,WUHU216DAVISWMX,2013-06-18 06:09:00,
2013-06-18 02:14:00,59.5,59.2,29.97,West,264,0.0,0.0,99,0.00,,,0.00,WUHU216DAVISWMX,2013-06-18 06:14:00,
2013-06-18 02:19:00,59.4,59.1,29.97,West,264,0.0,0.0,99,0.00,,,0.00,WUHU216DAVISWMX,2013-06-18 06:19:00,
2013-06-18 02:24:00,59.4,59.1,29.97,West,265,0.0,0.0,99,0.00,,,0.00,WUHU216DAVISWMX,2013-06-18 06:24:00,
2013-06-18 02:29:00,59.3,59.0,29.97,West,264,0.0,0.0,99,0.00,,,0.00,WUHU216DAVISWMX,2013-06-18 06:29:00,
2013-06-18 02:34:00,59.2,58.9,29.97,West,264,0.0,0.0,99,0.00,,,0.00,WUHU216DAVISWMX,2013-06-18 06:34:00,
2013-06-18 02:39:00,59.1,58.8,29.97,West,264,0.0,0.0,99,0.00,,,0.00,WUHU216DAVISWMX,2013-06-18 06:39:00,
2013-06-18 02:44:00,59.1,58.8,29.97,West,264,0.0,0.0,99,0.00,,,0.00,WUHU216DAVISWMX,2013-06-18 06:44:00,
2013-06-18 02:49:00,59.0,58.7,29.97,West,264,0.0,0.0,99,0.00,,,0.00,WUHU216DAVISWMX,2013-06-18 06:49:00,
2013-06-18 02:54:00,58.9,58.9,29.97,West,265,0.0,0.0,100,0.00,,,0.00,WUHU216DAVISWMX,2013-06-18 06:54:00,
2013-06-18 02:59:00,58.9,58.6,29.97,West,265,0.0,0.0,99,0.00,,,0.00,WUHU216DAVISWMX,2013-06-18 06:59:00,
2013-06-18 03:04:00,58.8,58.8,29.97,West,264,0.0,0.0,100,0.00,,,0.00,WUHU216DAVISWMX,2013-06-18 07:04:00,
2013-06-18 03:09:00,58.9,58.9,29.97,West,265,0.0,0.0,100,0.00,,,0.00,WUHU216DAVISWMX,2013-06-18 07:09:00,
2013-06-18 03:14:00,58.7,58.7,29.97,West,264,0.0,0.0,100,0.00,,,0.00,WUHU216DAVISWMX,2013-06-18 07:14:00,
2013-06-18 03:19:00,58.6,58.6,29.97,West,264,0.0,0.0,100,0.00,,,0.00,WUHU216DAVISWMX,2013-06-18 07:19:00,
2013-06-18 03:24:00,58.5,58.5,29.96,West,265,0.0,0.0,100,0.00,,,0.00,WUHU216DAVISWMX,2013-06-18 07:24:00,
2013-06-18 03:29:00,58.5,58.5,29.96,West,264,0.0,0.0,100,0.00,,,0.00,WUHU216DAVISWMX,2013-06-18 07:29:00,
2013-06-18 03:34:00,58.4,58.4,29.96,West,264,0.0,0.0,100,0.00,,,0.00,WUHU216DAVISWMX,2013-06-18 07:34:00,
2013-06-18 03:39:00,58.3,58.3,29.96,West,264,0.0,0.0,100,0.00,,,0.00,WUHU216DAVISWMX,2013-06-18 07:39:00,
2013-06-18 03:44:00,58.2,58.2,29.96,West,265,0.0,0.0,100,0.00,,,0.00,WUHU216DAVISWMX,2013-06-18 07:44:00,
2013-06-18 03:49:00,58.2,58.2,29.96,West,264,0.0,0.0,100,0.00,,,0.00,WUHU216DAVISWMX,2013-06-18 07:49:00,
2013-06-18 03:54:00,58.0,58.0,29.96,West,264,0.0,0.0,100,0.00,,,0.00,WUHU216DAVISWMX,2013-06-18 07:54:00,
2013-06-18 03:59:00,57.9,57.9,29.96,West,265,0.0,0.0,100,0.00,,,0.00,WUHU216DAVISWMX,2013-06-18 07:59:00,
2013-06-18 04:04:00,57.8,57.8,29.96,West,264,0.0,0.0,100,0.00,,,0.00,WUHU216DAVISWMX,2013-06-18 08:04:00,
2013-06-18 04:09:00,57.8,57.8,29.96,West,264,0.0,0.0,100,0.00,,,0.00,WUHU216DAVISWMX,2013-06-18 08:09:00,
2013-06-18 04:14:00,57.7,57.7,29.96,West,264,0.0,0.0,100,0.00,,,0.00,WUHU216DAVISWMX,2013-06-18 08:14:00,
2013-06-18 04:19:00,57.7,57.7,29.96,West,264,0.0,0.0,100,0.00,,,0.00,WUHU216DAVISWMX,2013-06-18 08:19:00,
2013-06-18 04:24:00,57.6,57.6,29.96,West,264,0.0,0.0,100,0.00,,,0.00,WUHU216DAVISWMX,2013-06-18 08:24:00,
2013-06-18 04:29:00,57.6,57.6,29.96,West,265,0.0,0.0,100,0.00,,,0.00,WUHU216DAVISWMX,2013-06-18 08:29:00,
2013-06-18 04:34:00,57.6,57.6,29.96,West,264,0.0,0.0,100,0.00,,,0.00,WUHU216DAVISWMX,2013-06-18 08:34:00,
2013-06-18 04:39:00,57.4,57.4,29.96,West,265,0.0,0.0,100,0.00,,,0.00,WUHU216DAVISWMX,2013-06-18 08:39:00,
2013-06-18 04:44:00,57.4,57.4,29.96,West,264,0.0,0.0,100,0.00,,,0.00,WUHU216DAVISWMX,2013-06-18 08:44:00,
2013-06-18 04:49:00,57.3,57.3,29.97,West,265,0.0,0.0,100,0.00,,,0.00,WUHU216DAVISWMX,2013-06-18 08:49:00,
2013-06-18 04:54:00,57.2,57.2,29.96,West,264,0.0,0.0,100,0.00,,,0.00,WUHU216DAVISWMX,2013-06-18 08:54:00,
2013-06-18 04:59:00,57.2,57.2,29.96,West,264,0.0,0.0,100,0.00,,,0.00,WUHU216DAVISWMX,2013-06-18 08:59:00,
2013-06-18 05:04:00,57.1,57.1,29.96,West,264,0.0,0.0,100,0.00,,,0.00,WUHU216DAVISWMX,2013-06-18 09:04:00,
2013-06-18 05:09:00,57.1,57.1,29.96,West,265,0.0,0.0,100,0.00,,,0.00,WUHU216DAVISWMX,2013-06-18 09:09:00,
2013-06-18 05:14:00,57.0,57.0,29.96,West,264,0.0,0.0,100,0.00,,,0.00,WUHU216DAVISWMX,2013-06-18 09:14:00,
2013-06-18 05:19:00,57.1,57.1,29.97,West,265,0.0,0.0,100,0.00,,,0.00,WUHU216DAVISWMX,2013-06-18 09:19:00,
2013-06-18 05:24:00,57.0,57.0,29.97,West,264,0.0,0.0,100,0.00,,,0.00,WUHU216DAVISWMX,2013-06-18 09:24:00,
2013-06-18 05:29:00,56.9,56.9,29.97,West,264,0.0,0.0,100,0.00,,,0.00,WUHU216DAVISWMX,2013-06-18 09:29:00,
2013-06-18 05:34:00,57.0,57.0,29.97,West,264,0.0,0.0,100,0.00,,,0.00,WUHU216DAVISWMX,2013-06-18 09:34:00,
2013-06-18 05:39:00,56.9,56.9,29.97,West,264,0.0,0.0,100,0.00,,,0.00,WUHU216DAVISWMX,2013-06-18 09:39:00,
2013-06-18 05:44:00,56.9,56.9,29.98,West,264,0.0,0.0,100,0.00,,,0.00,WUHU216DAVISWMX,2013-06-18 09:44:00,
2013-06-18 05:49:00,56.9,56.9,29.98,West,264,0.0,0.0,100,0.00,,,0.00,WUHU216DAVISWMX,2013-06-18 09:49:00,
2013-06-18 05:54:00,56.9,56.9,29.98,West,264,0.0,0.0,100,0.00,,,0.00,WUHU216DAVISWMX,2013-06-18 09:54:00,
2013-06-18 05:59:00,56.9,56.9,29.98,West,265,0.0,0.0,100,0.00,,,0.00,WUHU216DAVISWMX,2013-06-18 09:59:00,
2013-06-18 06:04:00,56.9,56.9,29.98,West,264,0.0,0.0,100,0.00,,,0.00,WUHU216DAVISWMX,2013-06-18 10:04:00,
2013-06-18 06:09:00,56.8,56.8,29.98,West,264,0.0,0.0,100,0.00,,,0.00,WUHU216DAVISWMX,2013-06-18 10:09:00,
2013-06-18 06:14:00,57.0,57.0,29.98,West,264,0.0,0.0,100,0.00,,,0.00,WUHU216DAVISWMX,2013-06-18 10:14:00,
2013-06-18 06:19:00,57.1,57.1,29.98,West,264,0.0,0.0,100,0.00,,,0.00,WUHU216DAVISWMX,2013-06-18 10:19:00,
2013-06-18 06:24:00,57.1,57.1,29.99,West,264,0.0,0.0,100,0.00,,,0.00,WUHU216DAVISWMX,2013-06-18 10:24:00,
2013-06-18 06:29:00,57.3,57.3,29.99,West,265,0.0,0.0,100,0.00,,,0.00,WUHU216DAVISWMX,2013-06-18 10:29:00,
2013-06-18 06:34:00,57.3,57.3,29.99,West,264,0.0,0.0,100,0.01,,,0.01,WUHU216DAVISWMX,2013-06-18 10:34:00,
2013-06-18 06:39:00,57.5,57.5,29.99,West,264,0.0,0.0,100,0.01,,,0.01,WUHU216DAVISWMX,2013-06-18 10:39:00,
2013-06-18 06:44:00,57.8,57.8,29.99,West,265,0.0,0.0,100,0.01,,,0.01,WUHU216DAVISWMX,2013-06-18 10:44:00,
2013-06-18 06:49:00,57.9,57.9,30.00,West,264,0.0,0.0,100,0.01,,,0.01,WUHU216DAVISWMX,2013-06-18 10:49:00,
2013-06-18 06:54:00,58.1,58.1,30.00,West,264,0.0,0.0,100,0.01,,,0.01,WUHU216DAVISWMX,2013-06-18 10:54:00,
2013-06-18 06:59:00,58.4,58.4,30.00,West,264,0.0,0.0,100,0.01,,,0.01,WUHU216DAVISWMX,2013-06-18 10:59:00,
2013-06-18 07:04:00,58.5,58.5,30.00,West,265,0.0,0.0,100,0.01,,,0.01,WUHU216DAVISWMX,2013-06-18 11:04:00,
2013-06-18 07:09:00,58.6,58.6,30.00,West,264,0.0,0.0,100,0.01,,,0.01,WUHU216DAVISWMX,2013-06-18 11:09:00,
2013-06-18 07:14:00,59.0,59.0,30.00,West,264,0.0,0.0,100,0.01,,,0.01,WUHU216DAVISWMX,2013-06-18 11:14:00,
2013-06-18 07:19:00,59.2,59.2,30.00,West,265,0.0,0.0,100,0.01,,,0.01,WUHU216DAVISWMX,2013-06-18 11:19:00,
2013-06-18 07:24:00,59.5,59.5,30.00,West,265,0.0,0.0,100,0.01,,,0.01,WUHU216DAVISWMX,2013-06-18 11:24:00,
2013-06-18 07:29:00,59.6,59.6,30.00,West,265,0.0,0.0,100,0.01,,,0.01,WUHU216DAVISWMX,2013-06-18 11:29:00,
2013-06-18 07:34:00,59.8,59.8,30.00,West,265,0.0,0.0,100,0.00,,,0.01,WUHU216DAVISWMX,2013-06-18 11:34:00,
2013-06-18 07:39:00,60.1,60.1,30.00,West,264,0.0,0.0,100,0.00,,,0.01,WUHU216DAVISWMX,2013-06-18 11:39:00,
2013-06-18 07:44:00,60.4,60.4,30.00,West,264,0.0,0.0,100,0.00,,,0.01,WUHU216DAVISWMX,2013-06-18 11:44:00,
2013-06-18 07:49:00,60.8,60.8,30.00,West,264,0.0,0.0,100,0.00,,,0.01,WUHU216DAVISWMX,2013-06-18 11:49:00,
2013-06-18 07:54:00,61.0,61.0,30.00,West,264,0.0,0.0,100,0.00,,,0.01,WUHU216DAVISWMX,2013-06-18 11:54:00,
2013-06-18 07:59:00,61.5,61.5,30.00,West,264,0.0,0.0,100,0.00,,,0.01,WUHU216DAVISWMX,2013-06-18 11:59:00,
2013-06-18 08:04:00,62.0,62.0,30.00,West,264,0.0,0.0,100,0.00,,,0.01,WUHU216DAVISWMX,2013-06-18 12:04:00,
2013-06-18 08:09:00,62.3,62.3,30.00,West,265,0.0,0.0,100,0.00,,,0.01,WUHU216DAVISWMX,2013-06-18 12:09:00,
2013-06-18 08:14:00,62.6,62.6,30.00,West,265,0.0,0.0,100,0.00,,,0.01,WUHU216DAVISWMX,2013-06-18 12:14:00,
2013-06-18 08:19:00,62.9,62.9,30.00,West,265,0.0,0.0,100,0.00,,,0.01,WUHU216DAVISWMX,2013-06-18 12:19:00,
2013-06-18 08:24:00,63.1,63.1,30.00,NW,320,0.0,1.0,100,0.00,,,0.01,WUHU216DAVISWMX,2013-06-18 12:24:00,
2013-06-18 08:29:00,63.5,63.5,30.00,NW,320,0.0,1.0,100,0.00,,,0.01,WUHU216DAVISWMX,2013-06-18 12:29:00,
2013-06-18 08:34:00,63.7,63.7,30.00,NNW,338,0.0,1.0,100,0.00,,,0.01,WUHU216DAVISWMX,2013-06-18 12:34:00,
2013-06-18 08:39:00,64.2,63.9,30.01,NNW,338,0.0,1.0,99,0.00,,,0.01,WUHU216DAVISWMX,2013-06-18 12:39:00,
2013-06-18 08:44:00,64.6,63.4,30.01,NNW,338,0.0,1.0,96,0.00,,,0.01,WUHU216DAVISWMX,2013-06-18 12:44:00,
2013-06-18 08:49:00,65.0,64.1,30.01,NNW,338,0.0,0.0,97,0.00,,,0.01,WUHU216DAVISWMX,2013-06-18 12:49:00,
2013-06-18 08:54:00,65.8,64.3,30.01,NNW,338,0.0,1.0,95,0.00,,,0.01,WUHU216DAVISWMX,2013-06-18 12:54:00,
2013-06-18 08:59:00,66.3,64.8,30.01,NNW,338,0.0,1.0,95,0.00,,,0.01,WUHU216DAVISWMX,2013-06-18 12:59:00,
2013-06-18 09:04:00,66.9,65.1,30.01,NNW,338,0.0,1.0,94,0.00,,,0.01,WUHU216DAVISWMX,2013-06-18 13:04:00,
2013-06-18 09:09:00,67.1,65.0,30.01,NNW,338,0.0,1.0,93,0.00,,,0.01,WUHU216DAVISWMX,2013-06-18 13:09:00,
2013-06-18 09:14:00,67.6,65.2,30.01,NNW,338,0.0,0.0,92,0.00,,,0.01,WUHU216DAVISWMX,2013-06-18 13:14:00,
2013-06-18 09:19:00,67.9,65.2,30.01,NNW,338,1.0,1.0,91,0.00,,,0.01,WUHU216DAVISWMX,2013-06-18 13:19:00,
2013-06-18 09:24:00,68.0,64.9,30.01,NNW,338,0.0,2.0,90,0.00,,,0.01,WUHU216DAVISWMX,2013-06-18 13:24:00,
2013-06-18 09:29:00,68.1,65.7,30.01,NNW,338,0.0,2.0,92,0.00,,,0.01,WUHU216DAVISWMX,2013-06-18 13:29:00,
2013-06-18 09:34:00,68.5,65.4,30.01,NNW,338,0.0,1.0,90,0.00,,,0.01,WUHU216DAVISWMX,2013-06-18 13:34:00,
2013-06-18 09:39:00,69.0,65.9,30.01,SE,136,0.0,4.0,90,0.00,,,0.01,WUHU216DAVISWMX,2013-06-18 13:39:00,
2013-06-18 09:44:00,68.9,65.8,30.01,SE,136,1.0,4.0,90,0.00,,,0.01,WUHU216DAVISWMX,2013-06-18 13:44:00,
2013-06-18 09:49:00,68.8,65.7,30.01,ESE,116,0.0,4.0,90,0.00,,,0.01,WUHU216DAVISWMX,2013-06-18 13:49:00,
2013-06-18 09:54:00,69.1,66.6,30.01,ESE,116,0.0,4.0,92,0.00,,,0.01,WUHU216DAVISWMX,2013-06-18 13:54:00,
2013-06-18 09:59:00,69.6,65.9,30.01,ESE,112,0.0,3.0,88,0.00,,,0.01,WUHU216DAVISWMX,2013-06-18 13:59:00,
2013-06-18 10:04:00,69.9,66.5,30.01,ESE,112,0.0,3.0,89,0.00,,,0.01,WUHU216DAVISWMX,2013-06-18 14:04:00,
2013-06-18 10:09:00,70.0,66.9,30.00,East,97,0.0,2.0,90,0.00,,,0.01,WUHU216DAVISWMX,2013-06-18 14:09:00,
2013-06-18 10:14:00,70.2,66.2,30.00,NE,35,1.0,2.0,87,0.00,,,0.01,WUHU216DAVISWMX,2013-06-18 14:14:00,
2013-06-18 10:19:00,70.7,66.6,30.00,ESE,112,0.0,2.0,87,0.00,,,0.01,WUHU216DAVISWMX,2013-06-18 14:19:00,
2013-06-18 10:24:00,70.8,66.7,30.01,South,184,1.0,2.0,87,0.00,,,0.01,WUHU216DAVISWMX,2013-06-18 14:24:00,
2013-06-18 10:29:00,70.8,66.1,30.00,South,184,0.0,1.0,85,0.00,,,0.01,WUHU216DAVISWMX,2013-06-18 14:29:00,
2013-06-18 10:34:00,70.8,66.4,30.00,South,184,1.0,2.0,86,0.00,,,0.01,WUHU216DAVISWMX,2013-06-18 14:34:00,
2013-06-18 10:39:00,71.0,66.6,30.00,SE,126,0.0,2.0,86,0.00,,,0.01,WUHU216DAVISWMX,2013-06-18 14:39:00,
2013-06-18 10:44:00,71.0,66.0,30.00,SE,126,0.0,2.0,84,0.00,,,0.01,WUHU216DAVISWMX,2013-06-18 14:44:00,
2013-06-18 10:49:00,70.8,66.4,30.00,SE,126,0.0,1.0,86,0.00,,,0.01,WUHU216DAVISWMX,2013-06-18 14:49:00,
2013-06-18 10:54:00,70.8,66.4,30.00,NE,35,2.0,2.0,86,0.00,,,0.01,WUHU216DAVISWMX,2013-06-18 14:54:00,
2013-06-18 10:59:00,70.4,66.0,30.00,NE,48,1.0,3.0,86,0.00,,,0.01,WUHU216DAVISWMX,2013-06-18 14:59:00,
2013-06-18 11:04:00,69.9,65.9,30.00,NE,48,0.0,3.0,87,0.00,,,0.01,WUHU216DAVISWMX,2013-06-18 15:04:00,
2013-06-18 11:09:00,70.1,66.1,30.00,NE,48,0.0,1.0,87,0.00,,,0.01,WUHU216DAVISWMX,2013-06-18 15:09:00,
2013-06-18 11:14:00,70.1,66.1,30.00,NE,48,0.0,0.0,87,0.00,,,0.01,WUHU216DAVISWMX,2013-06-18 15:14:00,
2013-06-18 11:19:00,70.1,66.4,30.00,ESE,108,0.0,0.0,88,0.00,,,0.01,WUHU216DAVISWMX,2013-06-18 15:19:00,
2013-06-18 11:24:00,69.8,66.4,30.01,ESE,108,0.0,0.0,89,0.00,,,0.01,WUHU216DAVISWMX,2013-06-18 15:24:00,
2013-06-18 11:29:00,69.9,66.5,30.01,ESE,108,0.0,0.0,89,0.00,,,0.01,WUHU216DAVISWMX,2013-06-18 15:29:00,
2013-06-18 11:34:00,69.8,66.1,30.00,ESE,108,0.0,0.0,88,0.00,,,0.01,WUHU216DAVISWMX,2013-06-18 15:34:00,
2013-06-18 11:40:00,69.8,66.1,30.00,ESE,108,0.0,0.0,88,0.00,,,0.01,WUHU216DAVISWMX,2013-06-18 15:40:00,
2013-06-18 11:45:00,69.7,65.7,30.00,East,99,0.0,2.0,87,0.00,,,0.01,WUHU216DAVISWMX,2013-06-18 15:45:00,
2013-06-18 11:50:00,69.9,65.9,30.00,ENE,76,0.0,2.0,87,0.00,,,0.01,WUHU216DAVISWMX,2013-06-18 15:50:00,
2013-06-18 11:55:00,69.5,65.5,30.00,ENE,76,1.0,2.0,87,0.00,,,0.01,WUHU216DAVISWMX,2013-06-18 15:55:00,
2013-06-18 12:00:00,69.5,66.1,30.00,ENE,76,0.0,1.0,89,0.00,,,0.01,WUHU216DAVISWMX,2013-06-18 16:00:00,
2013-06-18 12:05:00,69.4,66.0,30.00,ENE,76,0.0,1.0,89,0.00,,,0.01,WUHU216DAVISWMX,2013-06-18 16:05:00,
2013-06-18 12:10:00,69.5,66.4,30.00,ENE,76,0.0,2.0,90,0.00,,,0.01,WUHU216DAVISWMX,2013-06-18 16:10:00,
2013-06-18 12:15:00,69.2,65.5,29.99,ENE,77,0.0,2.0,88,0.00,,,0.01,WUHU216DAVISWMX,2013-06-18 16:15:00,
2013-06-18 12:20:00,69.3,65.9,29.99,ENE,77,0.0,1.0,89,0.00,,,0.01,WUHU216DAVISWMX,2013-06-18 16:20:00,
2013-06-18 12:25:00,69.0,65.3,29.99,ENE,76,0.0,1.0,88,0.00,,,0.01,WUHU216DAVISWMX,2013-06-18 16:25:00,
2013-06-18 12:30:00,68.8,65.4,30.00,ENE,77,0.0,0.0,89,0.00,,,0.01,WUHU216DAVISWMX,2013-06-18 16:30:00,
2013-06-18 12:35:00,68.9,65.5,29.99,ENE,76,0.0,0.0,89,0.00,,,0.01,WUHU216DAVISWMX,2013-06-18 16:35:00,
2013-06-18 12:40:00,68.9,65.8,29.99,ENE,76,0.0,1.0,90,0.00,,,0.01,WUHU216DAVISWMX,2013-06-18 16:40:00,
2013-06-18 12:45:00,68.6,65.5,30.00,ENE,76,0.0,1.0,90,0.00,,,0.01,WUHU216DAVISWMX,2013-06-18 16:45:00,
2013-06-18 12:50:00,68.6,65.5,30.00,ENE,76,0.0,1.0,90,0.00,,,0.01,WUHU216DAVISWMX,2013-06-18 16:50:00,
2013-06-18 12:55:00,68.1,65.0,30.00,ENE,76,2.0,2.0,90,0.00,,,0.01,WUHU216DAVISWMX,2013-06-18 16:55:00,
2013-06-18 13:00:00,67.7,65.0,30.00,ENE,76,0.0,2.0,91,0.00,,,0.01,WUHU216DAVISWMX,2013-06-18 17:00:00,
2013-06-18 13:05:00,67.4,65.0,30.00,ENE,76,0.0,3.0,92,0.00,,,0.01,WUHU216DAVISWMX,2013-06-18 17:05:00,
2013-06-18 13:10:00,66.9,65.1,30.01,ENE,76,1.0,3.0,94,0.03,,,0.04,WUHU216DAVISWMX,2013-06-18 17:10:00,
2013-06-18 13:15:00,65.9,64.7,30.01,NNE,12,1.0,2.0,96,0.07,,,0.08,WUHU216DAVISWMX,2013-06-18 17:15:00,
2013-06-18 13:20:00,65.3,64.4,30.01,NNE,12,1.0,2.0,97,0.16,,,0.17,WUHU216DAVISWMX,2013-06-18 17:20:00,
2013-06-18 13:25:00,65.1,64.2,30.01,ENE,57,0.0,2.0,97,0.29,,,0.30,WUHU216DAVISWMX,2013-06-18 17:25:00,
2013-06-18 13:30:00,64.6,64.0,30.01,ENE,57,2.0,2.0,98,0.35,,,0.36,WUHU216DAVISWMX,2013-06-18 17:30:00,
2013-06-18 13:35:00,64.2,63.9,30.00,ENE,57,1.0,2.0,99,0.41,,,0.42,WUHU216DAVISWMX,2013-06-18 17:35:00,
2013-06-18 13:40:00,64.0,63.7,30.01,ENE,57,0.0,2.0,99,0.45,,,0.46,WUHU216DAVISWMX,2013-06-18 17:40:00,
2013-06-18 13:45:00,63.9,63.6,30.02,NE,54,0.0,1.0,99,0.47,,,0.48,WUHU216DAVISWMX,2013-06-18 17:45:00,
2013-06-18 13:50:00,63.7,63.4,30.02,NE,54,1.0,2.0,99,0.48,,,0.49,WUHU216DAVISWMX,2013-06-18 17:50:00,
2013-06-18 13:55:00,63.5,63.2,30.02,NE,54,0.0,2.0,99,0.50,,,0.51,WUHU216DAVISWMX,2013-06-18 17:55:00,
2013-06-18 14:00:00,63.4,63.1,30.01,NE,54,0.0,2.0,99,0.51,,,0.52,WUHU216DAVISWMX,2013-06-18 18:00:00,
2013-06-18 14:05:00,63.5,63.2,30.01,NE,54,0.0,1.0,99,0.52,,,0.53,WUHU216DAVISWMX,2013-06-18 18:05:00,
2013-06-18 14:10:00,63.5,63.2,30.01,NE,54,0.0,1.0,99,0.49,,,0.53,WUHU216DAVISWMX,2013-06-18 18:10:00,
2013-06-18 14:15:00,63.4,63.1,30.00,NE,54,1.0,1.0,99,0.45,,,0.54,WUHU216DAVISWMX,2013-06-18 18:15:00,
2013-06-18 14:20:00,63.4,63.1,30.00,NE,54,0.0,1.0,99,0.37,,,0.55,WUHU216DAVISWMX,2013-06-18 18:20:00,
2013-06-18 14:25:00,63.5,63.2,29.99,NE,54,0.0,0.0,99,0.26,,,0.56,WUHU216DAVISWMX,2013-06-18 18:25:00,
2013-06-18 14:30:00,63.5,63.2,29.98,NNE,23,0.0,1.0,99,0.20,,,0.57,WUHU216DAVISWMX,2013-06-18 18:30:00,
2013-06-18 14:35:00,63.5,63.5,30.00,NNE,23,0.0,1.0,100,0.15,,,0.57,WUHU216DAVISWMX,2013-06-18 18:35:00,
2013-06-18 14:40:00,63.7,63.7,29.99,NNE,23,0.0,0.0,100,0.11,,,0.57,WUHU216DAVISWMX,2013-06-18 18:40:00,
2013-06-18 14:45:00,63.8,63.8,30.00,NNE,23,1.0,1.0,100,0.09,,,0.58,WUHU216DAVISWMX,2013-06-18 18:45:00,
2013-06-18 14:50:00,63.9,63.9,29.99,NNE,23,0.0,1.0,100,0.09,,,0.58,WUHU216DAVISWMX,2013-06-18 18:50:00,
2013-06-18 14:55:00,64.1,64.1,29.99,NNE,23,0.0,1.0,100,0.07,,,0.58,WUHU216DAVISWMX,2013-06-18 18:55:00,
2013-06-18 15:00:00,64.3,64.3,30.00,NNE,23,0.0,1.0,100,0.06,,,0.58,WUHU216DAVISWMX,2013-06-18 19:00:00,
2013-06-18 15:05:00,64.2,64.2,29.99,NNE,23,0.0,1.0,100,0.05,,,0.58,WUHU216DAVISWMX,2013-06-18 19:05:00,
2013-06-18 15:10:00,63.9,63.6,29.99,NNE,23,0.0,1.0,99,0.05,,,0.58,WUHU216DAVISWMX,2013-06-18 19:10:00,
2013-06-18 15:15:00,64.1,63.8,29.99,NNE,23,0.0,0.0,99,0.04,,,0.58,WUHU216DAVISWMX,2013-06-18 19:15:00,
2013-06-18 15:20:00,63.9,63.6,29.99,NNE,23,0.0,1.0,99,0.03,,,0.58,WUHU216DAVISWMX,2013-06-18 19:20:00,
2013-06-18 15:25:00,64.2,63.9,29.99,NNE,23,0.0,1.0,99,0.02,,,0.58,WUHU216DAVISWMX,2013-06-18 19:25:00,
2013-06-18 15:30:00,64.2,63.6,29.99,NNE,23,0.0,1.0,98,0.01,,,0.58,WUHU216DAVISWMX,2013-06-18 19:30:00,
2013-06-18 15:35:00,64.0,63.4,29.99,ENE,78,0.0,2.0,98,0.01,,,0.58,WUHU216DAVISWMX,2013-06-18 19:35:00,
2013-06-18 15:40:00,63.8,63.2,30.00,ENE,64,0.0,2.0,98,0.01,,,0.58,WUHU216DAVISWMX,2013-06-18 19:40:00,
2013-06-18 15:45:00,63.7,63.1,30.00,ENE,64,0.0,2.0,98,0.00,,,0.58,WUHU216DAVISWMX,2013-06-18 19:45:00,
2013-06-18 15:50:00,63.4,62.8,30.00,ENE,65,0.0,1.0,98,0.00,,,0.58,WUHU216DAVISWMX,2013-06-18 19:50:00,
2013-06-18 15:55:00,63.4,62.8,30.00,ENE,64,0.0,1.0,98,0.00,,,0.58,WUHU216DAVISWMX,2013-06-18 19:55:00,
2013-06-18 16:00:00,63.3,62.7,30.00,ENE,65,0.0,0.0,98,0.00,,,0.58,WUHU216DAVISWMX,2013-06-18 20:00:00,
2013-06-18 16:05:00,63.2,62.6,30.00,ENE,64,0.0,0.0,98,0.00,,,0.58,WUHU216DAVISWMX,2013-06-18 20:05:00,
2013-06-18 16:10:00,63.1,62.5,30.00,ENE,65,0.0,0.0,98,0.00,,,0.58,WUHU216DAVISWMX,2013-06-18 20:10:00,
2013-06-18 16:15:00,63.0,62.7,30.00,ENE,64,0.0,0.0,99,0.00,,,0.58,WUHU216DAVISWMX,2013-06-18 20:15:00,
2013-06-18 16:20:00,62.8,62.5,30.00,ENE,64,0.0,0.0,99,0.00,,,0.58,WUHU216DAVISWMX,2013-06-18 20:20:00,
2013-06-18 16:25:00,62.7,62.4,30.00,ENE,64,0.0,0.0,99,0.00,,,0.58,WUHU216DAVISWMX,2013-06-18 20:25:00,
2013-06-18 16:30:00,62.7,62.4,30.00,ENE,64,0.0,0.0,99,0.00,,,0.58,WUHU216DAVISWMX,2013-06-18 20:30:00,
2013-06-18 16:35:00,62.6,62.3,30.01,ENE,64,0.0,0.0,99,0.00,,,0.58,WUHU216DAVISWMX,2013-06-18 20:35:00,
2013-06-18 16:40:00,62.8,62.8,30.01,ENE,64,0.0,0.0,100,0.00,,,0.58,WUHU216DAVISWMX,2013-06-18 20:40:00,
2013-06-18 16:45:00,62.7,62.4,30.01,ENE,64,0.0,0.0,99,0.00,,,0.58,WUHU216DAVISWMX,2013-06-18 20:45:00,
2013-06-18 16:50:00,62.7,62.7,30.01,ENE,64,0.0,0.0,100,0.00,,,0.58,WUHU216DAVISWMX,2013-06-18 20:50:00,
2013-06-18 16:55:00,62.7,62.7,30.00,ENE,65,0.0,0.0,100,0.00,,,0.58,WUHU216DAVISWMX,2013-06-18 20:55:00,
2013-06-18 17:00:00,62.8,62.5,30.00,ENE,64,0.0,0.0,99,0.00,,,0.58,WUHU216DAVISWMX,2013-06-18 21:00:00,
2013-06-18 17:05:00,62.8,62.5,30.00,ENE,64,0.0,0.0,99,0.00,,,0.58,WUHU216DAVISWMX,2013-06-18 21:05:00,
2013-06-18 17:10:00,62.9,62.9,30.00,ENE,64,0.0,0.0,100,0.00,,,0.58,WUHU216DAVISWMX,2013-06-18 21:10:00,
2013-06-18 17:15:00,62.8,62.8,30.00,ENE,64,0.0,0.0,100,0.00,,,0.58,WUHU216DAVISWMX,2013-06-18 21:15:00,
2013-06-18 17:20:00,63.0,63.0,30.00,ENE,64,0.0,0.0,100,0.00,,,0.58,WUHU216DAVISWMX,2013-06-18 21:20:00,
2013-06-18 17:25:00,62.9,62.9,30.00,ENE,64,0.0,0.0,100,0.00,,,0.58,WUHU216DAVISWMX,2013-06-18 21:25:00,
2013-06-18 17:30:00,62.9,62.9,30.00,ENE,64,0.0,0.0,100,0.00,,,0.58,WUHU216DAVISWMX,2013-06-18 21:30:00,
2013-06-18 17:35:00,63.0,63.0,30.00,ENE,64,0.0,0.0,100,0.00,,,0.58,WUHU216DAVISWMX,2013-06-18 21:35:00,
2013-06-18 17:40:00,62.9,62.9,30.00,ENE,64,0.0,0.0,100,0.00,,,0.58,WUHU216DAVISWMX,2013-06-18 21:40:00,
2013-06-18 17:45:00,62.9,62.9,29.99,ENE,64,0.0,0.0,100,0.00,,,0.58,WUHU216DAVISWMX,2013-06-18 21:45:00,
2013-06-18 17:50:00,62.8,62.5,29.99,ENE,64,0.0,0.0,99,0.00,,,0.58,WUHU216DAVISWMX,2013-06-18 21:50:00,
2013-06-18 17:55:00,62.7,62.7,29.99,ENE,64,0.0,0.0,100,0.00,,,0.58,WUHU216DAVISWMX,2013-06-18 21:55:00,
2013-06-18 18:00:00,62.5,62.2,29.99,ENE,64,0.0,0.0,99,0.00,,,0.58,WUHU216DAVISWMX,2013-06-18 22:00:00,
2013-06-18 18:05:00,62.4,62.4,29.99,ENE,64,0.0,0.0,100,0.00,,,0.58,WUHU216DAVISWMX,2013-06-18 22:05:00,
2013-06-18 18:10:00,62.3,62.3,29.99,ENE,64,0.0,0.0,100,0.00,,,0.58,WUHU216DAVISWMX,2013-06-18 22:10:00,
2013-06-18 18:15:00,62.2,61.9,29.99,ENE,64,0.0,0.0,99,0.00,,,0.58,WUHU216DAVISWMX,2013-06-18 22:15:00,
2013-06-18 18:20:00,62.3,62.0,30.00,ENE,64,0.0,0.0,99,0.00,,,0.58,WUHU216DAVISWMX,2013-06-18 22:20:00,
2013-06-18 18:25:00,62.2,61.9,30.00,ENE,64,0.0,0.0,99,0.00,,,0.58,WUHU216DAVISWMX,2013-06-18 22:25:00,
2013-06-18 18:30:00,62.2,62.2,30.00,ENE,64,0.0,0.0,100,0.00,,,0.58,WUHU216DAVISWMX,2013-06-18 22:30:00,
2013-06-18 18:35:00,62.0,61.7,30.00,ENE,64,0.0,0.0,99,0.00,,,0.58,WUHU216DAVISWMX,2013-06-18 22:35:00,
2013-06-18 18:40:00,61.9,61.6,29.99,ENE,64,0.0,0.0,99,0.00,,,0.58,WUHU216DAVISWMX,2013-06-18 22:40:00,
2013-06-18 18:45:00,61.9,61.6,30.00,ENE,64,0.0,0.0,99,0.00,,,0.58,WUHU216DAVISWMX,2013-06-18 22:45:00,
2013-06-18 18:50:00,61.7,61.4,30.00,ENE,64,0.0,0.0,99,0.00,,,0.58,WUHU216DAVISWMX,2013-06-18 22:50:00,
2013-06-18 18:55:00,61.7,61.4,30.00,ENE,64,0.0,0.0,99,0.00,,,0.58,WUHU216DAVISWMX,2013-06-18 22:55:00,
2013-06-18 19:00:00,61.6,61.3,30.00,ENE,64,0.0,1.0,99,0.00,,,0.58,WUHU216DAVISWMX,2013-06-18 23:00:00,
2013-06-18 19:05:00,61.5,61.2,30.00,ENE,64,0.0,1.0,99,0.00,,,0.58,WUHU216DAVISWMX,2013-06-18 23:05:00,
2013-06-18 19:10:00,61.5,61.2,30.00,ENE,64,0.0,0.0,99,0.00,,,0.58,WUHU216DAVISWMX,2013-06-18 23:10:00,
2013-06-18 19:15:00,61.3,61.0,30.00,ENE,64,0.0,0.0,99,0.00,,,0.58,WUHU216DAVISWMX,2013-06-18 23:15:00,
2013-06-18 19:20:00,61.4,61.1,30.00,ENE,64,0.0,0.0,99,0.00,,,0.58,WUHU216DAVISWMX,2013-06-18 23:20:00,
2013-06-18 19:25:00,61.2,60.9,30.00,ENE,64,0.0,0.0,99,0.00,,,0.58,WUHU216DAVISWMX,2013-06-18 23:25:00,
2013-06-18 19:30:00,61.1,60.8,30.01,ENE,64,0.0,0.0,99,0.00,,,0.58,WUHU216DAVISWMX,2013-06-18 23:30:00,
2013-06-18 19:35:00,61.1,61.1,30.01,ENE,64,0.0,0.0,100,0.00,,,0.58,WUHU216DAVISWMX,2013-06-18 23:35:00,
2013-06-18 19:40:00,61.0,61.0,30.00,ENE,64,0.0,0.0,100,0.00,,,0.58,WUHU216DAVISWMX,2013-06-18 23:40:00,
2013-06-18 19:45:00,60.9,60.9,30.00,NNW,346,0.0,2.0,100,0.00,,,0.58,WUHU216DAVISWMX,2013-06-18 23:45:00,
2013-06-18 19:50:00,60.9,60.9,30.00,NNW,346,0.0,2.0,100,0.00,,,0.58,WUHU216DAVISWMX,2013-06-18 23:50:00,
2013-06-18 19:55:00,60.8,60.5,29.99,NNW,346,0.0,0.0,99,0.00,,,0.58,WUHU216DAVISWMX,2013-06-18 23:55:00,
2013-06-18 20:00:00,60.7,60.7,29.99,NNW,346,0.0,0.0,100,0.00,,,0.58,WUHU216DAVISWMX,2013-06-19 00:00:00,
2013-06-18 20:05:00,60.7,60.7,29.99,NNW,346,0.0,0.0,100,0.00,,,0.58,WUHU216DAVISWMX,2013-06-19 00:05:00,
2013-06-18 20:10:00,60.7,60.7,29.99,NNW,346,0.0,0.0,100,0.00,,,0.58,WUHU216DAVISWMX,2013-06-19 00:10:00,
2013-06-18 20:15:00,60.6,60.6,29.99,NNW,346,0.0,0.0,100,0.00,,,0.58,WUHU216DAVISWMX,2013-06-19 00:15:00,
2013-06-18 20:20:00,60.6,60.6,29.98,NNW,346,0.0,0.0,100,0.00,,,0.58,WUHU216DAVISWMX,2013-06-19 00:20:00,
2013-06-18 20:25:00,60.4,60.4,29.98,NNW,345,0.0,0.0,100,0.00,,,0.58,WUHU216DAVISWMX,2013-06-19 00:25:00,
2013-06-18 20:30:00,60.4,60.4,29.98,NNW,346,0.0,0.0,100,0.00,,,0.58,WUHU216DAVISWMX,2013-06-19 00:30:00,
2013-06-18 20:35:00,60.4,60.4,29.98,NNW,346,0.0,0.0,100,0.00,,,0.58,WUHU216DAVISWMX,2013-06-19 00:35:00,
2013-06-18 20:40:00,60.4,60.4,29.98,NNW,346,0.0,0.0,100,0.00,,,0.58,WUHU216DAVISWMX,2013-06-19 00:40:00,
2013-06-18 20:45:00,60.3,60.3,29.98,NNW,346,0.0,0.0,100,0.00,,,0.58,WUHU216DAVISWMX,2013-06-19 00:45:00,
2013-06-18 20:50:00,60.3,60.3,29.98,NNW,346,0.0,0.0,100,0.00,,,0.58,WUHU216DAVISWMX,2013-06-19 00:50:00,
2013-06-18 20:55:00,60.3,60.3,29.98,NNW,346,0.0,0.0,100,0.00,,,0.58,WUHU216DAVISWMX,2013-06-19 00:55:00,
2013-06-18 21:00:00,60.2,59.9,29.99,NNW,346,0.0,0.0,99,0.00,,,0.58,WUHU216DAVISWMX,2013-06-19 01:00:00,
2013-06-18 21:05:00,60.1,60.1,29.99,NNW,346,0.0,0.0,100,0.00,,,0.58,WUHU216DAVISWMX,2013-06-19 01:05:00,
2013-06-18 21:10:00,60.1,60.1,29.99,NNW,346,0.0,0.0,100,0.00,,,0.58,WUHU216DAVISWMX,2013-06-19 01:10:00,
2013-06-18 21:15:00,60.0,60.0,30.00,NNW,346,0.0,0.0,100,0.00,,,0.58,WUHU216DAVISWMX,2013-06-19 01:15:00,
2013-06-18 21:20:00,60.0,60.0,30.00,NNW,346,0.0,0.0,100,0.00,,,0.58,WUHU216DAVISWMX,2013-06-19 01:20:00,
2013-06-18 21:25:00,60.0,60.0,30.00,NNW,346,0.0,0.0,100,0.00,,,0.58,WUHU216DAVISWMX,2013-06-19 01:25:00,
2013-06-18 21:30:00,60.0,60.0,30.00,NNW,346,0.0,0.0,100,0.00,,,0.58,WUHU216DAVISWMX,2013-06-19 01:30:00,
2013-06-18 21:35:00,60.1,60.1,30.00,NNW,346,0.0,0.0,100,0.00,,,0.58,WUHU216DAVISWMX,2013-06-19 01:35:00,
2013-06-18 21:40:00,60.0,60.0,30.01,NNW,346,0.0,0.0,100,0.00,,,0.58,WUHU216DAVISWMX,2013-06-19 01:40:00,
2013-06-18 21:45:00,60.0,60.0,30.00,NNW,346,0.0,0.0,100,0.00,,,0.58,WUHU216DAVISWMX,2013-06-19 01:45:00,
2013-06-18 21:50:00,59.9,59.9,30.01,NNW,345,0.0,0.0,100,0.00,,,0.58,WUHU216DAVISWMX,2013-06-19 01:50:00,
2013-06-18 21:55:00,59.8,59.8,30.01,NNW,346,0.0,0.0,100,0.00,,,0.58,WUHU216DAVISWMX,2013-06-19 01:55:00,
2013-06-18 22:00:00,59.7,59.7,30.01,NNW,346,0.0,0.0,100,0.00,,,0.58,WUHU216DAVISWMX,2013-06-19 02:00:00,
2013-06-18 22:05:00,59.6,59.6,30.01,NNW,346,0.0,0.0,100,0.00,,,0.58,WUHU216DAVISWMX,2013-06-19 02:05:00,
2013-06-18 22:10:00,59.5,59.5,30.01,NNW,346,0.0,0.0,100,0.00,,,0.58,WUHU216DAVISWMX,2013-06-19 02:10:00,
2013-06-18 22:15:00,59.6,59.6,30.01,NNW,346,0.0,0.0,100,0.00,,,0.58,WUHU216DAVISWMX,2013-06-19 02:15:00,
2013-06-18 22:20:00,59.6,59.6,30.00,NNW,346,0.0,0.0,100,0.00,,,0.58,WUHU216DAVISWMX,2013-06-19 02:20:00,
2013-06-18 22:25:00,59.5,59.5,30.00,NNW,345,0.0,0.0,100,0.00,,,0.58,WUHU216DAVISWMX,2013-06-19 02:25:00,
2013-06-18 22:30:00,59.6,59.6,30.00,NNW,346,0.0,0.0,100,0.00,,,0.58,WUHU216DAVISWMX,2013-06-19 02:30:00,
2013-06-18 22:35:00,59.6,59.6,30.00,NNW,346,0.0,0.0,100,0.00,,,0.58,WUHU216DAVISWMX,2013-06-19 02:35:00,
2013-06-18 22:40:00,59.5,59.5,30.00,NNW,346,0.0,0.0,100,0.00,,,0.58,WUHU216DAVISWMX,2013-06-19 02:40:00,
2013-06-18 22:45:00,59.4,59.4,30.00,NNW,345,0.0,0.0,100,0.00,,,0.58,WUHU216DAVISWMX,2013-06-19 02:45:00,
2013-06-18 22:50:00,59.5,59.5,29.99,NNW,346,0.0,0.0,100,0.00,,,0.58,WUHU216DAVISWMX,2013-06-19 02:50:00,
2013-06-18 22:55:00,59.5,59.5,29.99,NNW,346,0.0,0.0,100,0.00,,,0.58,WUHU216DAVISWMX,2013-06-19 02:55:00,
2013-06-18 23:00:00,59.5,59.5,30.00,NNW,346,0.0,0.0,100,0.00,,,0.58,WUHU216DAVISWMX,2013-06-19 03:00:00,
2013-06-18 23:05:00,59.4,59.4,30.00,NNW,346,0.0,0.0,100,0.00,,,0.58,WUHU216DAVISWMX,2013-06-19 03:05:00,
2013-06-18 23:10:00,59.3,59.3,30.00,NNW,346,0.0,0.0,100,0.00,,,0.58,WUHU216DAVISWMX,2013-06-19 03:10:00,
2013-06-18 23:15:00,59.2,59.2,30.00,NNW,346,0.0,0.0,100,0.00,,,0.58,WUHU216DAVISWMX,2013-06-19 03:15:00,
2013-06-18 23:20:00,59.3,59.3,30.00,NNW,346,0.0,0.0,100,0.00,,,0.58,WUHU216DAVISWMX,2013-06-19 03:20:00,
2013-06-18 23:25:00,59.2,59.2,30.00,NNW,346,0.0,0.0,100,0.00,,,0.58,WUHU216DAVISWMX,2013-06-19 03:25:00,
2013-06-18 23:30:00,59.2,59.2,30.00,NNW,346,0.0,0.0,100,0.00,,,0.58,WUHU216DAVISWMX,2013-06-19 03:30:00,
2013-06-18 23:36:00,59.1,59.1,30.00,NNW,345,0.0,0.0,100,0.00,,,0.58,WUHU216DAVISWMX,2013-06-19 03:36:00,
2013-06-18 23:41:00,59.2,59.2,30.00,NNW,346,0.0,0.0,100,0.00,,,0.58,WUHU216DAVISWMX,2013-06-19 03:41:00,
2013-06-18 23:46:00,59.2,59.2,30.00,NNW,346,0.0,0.0,100,0.00,,,0.58,WUHU216DAVISWMX,2013-06-19 03:46:00,
2013-06-18 23:51:00,59.1,59.1,30.00,NNW,346,0.0,0.0,100,0.00,,,0.58,WUHU216DAVISWMX,2013-06-19 03:51:00,
2013-06-18 23:56:00,59.1,59.1,30.00,NNW,346,0.0,0.0,100,0.00,,,0.58,WUHU216DAVISWMX,2013-06-19 03:56:00,